Latest Weather Observations for Thredbo Top Station

IDN60801

Issued at 1:05 pm EST Thursday 28 August 2014 (issued every 30 minutes, with the page automatically refreshed every 10 minutes)

About weather observations | Map of weather stations | Latest weather observations for NSW | Other Formats
Station Details ID: 071032 Name: THREDBO AWS Lat: -36.49 Lon: 148.29 Height: 1957.0 m
Data from the previous 72 hours. | See also: Recent months at Thredbo Top Station
Date/Time
EST
Temp
°C
App
Temp
°C
Dew
Point
Rel
Hum
%
Delta-T
°C
Wind Press
QNH
hPa
Press
MSL
hPa
Rain
since 9 am
mm
Dir
 
Spd
km/h
Gust
km/h
Spd
kts
Gust
kts
28/01:00pm 4.7 0.6 -8.4 38 4.4 N 6 11 3 6 1027.1 1032.1 0.0
28/12:30pm 4.1 0.2 -10.7 33 4.9 NE 4 7 2 4 1027.5 - 0.0
28/12:00pm 2.8 -1.3 -8.2 44 3.8 W 6 9 3 5 1027.8 1032.8 0.0
28/11:30am 2.8 -1.6 -9.8 39 4.2 N 7 11 4 6 1028.2 - 0.0
28/11:00am 1.8 -2.6 -10.0 41 3.8 NNW 7 9 4 5 1028.5 1033.5 0.0
28/10:30am 1.3 -3.7 -12.8 34 4.1 NNW 9 11 5 6 1028.6 - 0.0
28/10:00am 1.4 -3.3 -14.2 30 4.4 N 7 11 4 6 1028.6 1033.7 0.0
28/09:30am 0.0 -5.0 -13.6 35 3.8 NNW 9 11 5 6 1028.8 - 0.0
28/09:00am -0.3 -5.4 -15.7 30 4.0 NNW 9 13 5 7 1029.0 1034.0 0.0
28/08:30am -0.7 -5.4 -18.7 24 4.3 NW 6 13 3 7 1029.0 - 0.0
28/08:00am -0.1 -4.9 -22.8 16 4.9 NW 6 7 3 4 1028.8 1033.9 0.0
28/07:30am -1.5 -6.4 -20.4 22 4.2 WNW 7 11 4 6 1029.0 - 0.0
28/07:00am -2.4 -6.8 -20.7 23 3.9 NNW 4 9 2 5 1028.7 1033.8 0.0
28/06:30am -2.5 -6.9 -20.2 24 3.9 WNW 4 7 2 4 1028.4 - 0.0
28/06:00am -3.3 -8.0 -20.5 25 3.6 WNW 6 11 3 6 1028.2 1033.2 0.0
28/05:30am -1.8 -6.2 -22.9 18 4.4 NW 4 9 2 5 1028.0 - 0.0
28/05:00am -4.0 -9.3 -20.6 26 3.4 W 9 13 5 7 1027.9 1032.9 0.0
28/04:30am -2.7 -7.6 -20.9 23 3.9 W 7 11 4 6 1027.7 - 0.0
28/04:00am -2.6 -7.9 -20.8 23 3.9 W 9 11 5 6 1027.5 1032.5 0.0
28/03:30am -2.5 -7.8 -20.2 24 3.9 W 9 11 5 6 1027.5 - 0.0
28/03:00am -2.4 -7.7 -20.2 24 3.9 W 9 11 5 6 1027.5 1032.5 0.0
28/02:30am -0.4 -5.4 -22.4 17 4.8 W 7 11 4 6 1027.7 - 0.0
28/02:00am -2.4 -7.7 -19.2 26 3.7 WNW 9 13 5 7 1027.8 1032.8 0.0
28/01:30am -4.1 -9.4 -12.5 52 2.1 WNW 11 13 6 7 1028.0 - 0.0
28/01:00am -3.9 -8.3 -10.3 61 1.7 WNW 7 11 4 6 1028.3 1033.3 0.0
28/12:30am -5.1 -9.6 -6.8 88 0.3 NW 9 15 5 8 1028.3 - 0.0
28/12:00am -4.6 -8.1 -6.7 85 0.5 N 4 9 2 5 1028.3 1033.3 0.0
 
Date/Time
EST
Temp
°C
App
Temp
°C
Dew
Point
Rel
Hum
%
Delta-T
°C
Wind Press
QNH
hPa
Press
MSL
hPa
Rain
since 9 am
mm
Dir
 
Spd
km/h
Gust
km/h
Spd
kts
Gust
kts
27/11:30pm -4.0 -9.0 -4.3 98 -0.1 WNW 13 22 7 12 1028.4 - 0.0
27/11:00pm -4.1 -9.9 -4.2 99 -0.1 NW 17 20 9 11 1028.5 1033.5 0.0
27/10:30pm -4.3 -10.1 -4.4 99 -0.2 NW 17 20 9 11 1028.4 - 0.0
27/10:00pm -4.3 -7.8 -6.1 87 0.4 N 4 9 2 5 1028.5 1033.5 0.0
27/09:30pm -3.2 -7.2 -5.8 82 0.7 NNW 7 13 4 7 1028.4 - 0.0
27/09:00pm -3.2 -7.2 -5.5 84 0.6 NW 7 11 4 6 1028.3 1033.3 0.0
27/08:30pm -3.0 -7.7 -5.2 85 0.6 NW 11 13 6 7 1028.3 - 0.0
27/08:00pm -1.9 -6.4 -3.6 88 0.5 NW 11 13 6 7 1028.3 1033.3 0.0
27/07:30pm -2.2 -7.1 -3.3 92 0.3 NW 13 13 7 7 1028.3 - 0.0
27/07:00pm -1.7 -5.8 -2.8 92 0.3 N 9 13 5 7 1028.0 1033.1 0.0
27/06:30pm -1.3 -5.3 -2.6 91 0.4 N 9 11 5 6 1027.8 - 0.0
27/06:00pm -0.7 -4.7 -2.1 90 0.5 N 9 13 5 7 1027.7 1032.7 0.0
27/05:30pm -0.7 -4.8 -3.1 84 0.8 N 9 13 5 7 1027.4 - 0.0
27/05:00pm 0.0 -4.1 -2.9 81 1.1 N 9 13 5 7 1027.1 1032.1 0.0
27/04:30pm 1.1 -2.4 -2.8 75 1.5 N 6 9 3 5 1026.9 - 0.0
27/04:00pm 1.4 -3.0 -2.4 76 1.5 NNE 11 15 6 8 1026.8 1031.8 0.0
27/03:30pm 2.0 -2.0 -2.3 73 1.6 NNE 9 13 5 7 1026.7 - 0.0
27/03:00pm 2.1 -2.6 -1.9 75 1.5 NNE 13 17 7 9 1026.6 1031.5 0.0
27/02:30pm 2.1 -2.3 -2.4 72 1.7 NNE 11 15 6 8 1026.7 - 0.0
27/02:00pm 1.5 -2.5 -2.1 77 1.4 NNW 9 11 5 6 1026.7 1031.6 0.0
27/01:30pm 1.9 -2.5 -2.1 75 1.5 NNE 11 13 6 7 1026.7 - 0.0
27/01:00pm 1.9 -2.1 -2.2 74 1.6 NNE 9 13 5 7 1026.9 1031.9 0.0
27/12:30pm 1.8 -1.6 -1.8 77 1.4 NNE 6 11 3 6 1027.1 - 0.0
27/12:00pm 1.5 -2.4 -1.6 80 1.2 NE 9 13 5 7 1027.5 1032.5 0.0
27/11:30am 1.0 -2.9 -1.6 83 1.0 ENE 9 13 5 7 1027.8 - 0.0
27/11:00am 0.7 -3.7 -2.5 79 1.2 N 11 15 6 8 1027.9 1032.9 0.0
27/10:30am 0.5 -4.3 -2.7 79 1.2 NNE 13 19 7 10 1027.9 - 0.0
27/10:00am 0.3 -4.3 -4.3 71 1.6 NNE 11 15 6 8 1027.8 1032.8 0.0
27/09:30am 0.0 -4.8 -5.8 65 2.0 N 11 17 6 9 1027.9 - 0.0
27/09:00am 0.2 -5.1 -7.8 55 2.6 NNE 13 20 7 11 1027.8 1032.8 3.2
27/08:30am -1.2 -6.2 -8.6 57 2.3 NNW 11 17 6 9 1027.8 - 3.2
27/08:00am -1.7 -6.4 -9.3 56 2.2 NNW 9 15 5 8 1027.8 1032.8 3.2
27/07:30am -1.8 -6.3 -11.1 49 2.6 NNW 7 13 4 7 1027.5 - 3.2
27/07:00am -2.1 -7.4 -12.4 45 2.8 NNW 11 17 6 9 1027.2 1032.2 3.2
27/06:30am -2.0 -7.3 -12.6 44 2.9 N 11 15 6 8 1026.8 - 3.2
27/06:00am -2.5 -7.3 -10.3 55 2.2 NNW 9 15 5 8 1026.8 1031.8 3.2
27/05:30am -3.5 -8.8 -7.4 74 1.1 NW 13 15 7 8 1026.8 - 3.2
27/05:00am -3.2 -8.4 -6.3 79 0.9 NW 13 17 7 9 1027.0 1032.0 3.2
27/04:30am -3.3 -8.1 -5.6 84 0.6 NW 11 17 6 9 1027.0 - 3.2
27/04:00am -2.4 -7.0 -4.4 86 0.6 NW 11 13 6 7 1026.9 1031.9 3.2
27/03:30am -3.1 -8.0 -3.2 99 -0.1 NW 13 17 7 9 1026.8 - 3.2
27/03:00am -2.3 -7.5 -2.4 99 -0.1 NW 15 20 8 11 1026.9 1031.9 3.2
27/02:30am -1.5 -7.3 -1.6 99 0.0 NW 19 24 10 13 1027.2 - 3.2
27/02:00am -1.2 -6.2 -1.3 99 0.0 N 15 19 8 10 1027.5 1032.5 3.2
27/01:30am -1.0 -6.0 -1.1 99 0.0 N 15 20 8 11 1027.7 - 3.2
27/01:00am -0.7 -6.0 -0.8 99 0.0 N 17 24 9 13 1027.7 1032.7 3.2
27/12:30am -0.7 -6.4 -0.8 99 0.0 NNE 19 24 10 13 1027.8 - 3.2
27/12:00am -0.4 -6.3 -0.5 99 0.0 N 20 26 11 14 1027.8 1032.8 3.2
 
Date/Time
EST
Temp
°C
App
Temp
°C
Dew
Point
Rel
Hum
%
Delta-T
°C
Wind Press
QNH
hPa
Press
MSL
hPa
Rain
since 9 am
mm
Dir
 
Spd
km/h
Gust
km/h
Spd
kts
Gust
kts
26/11:30pm -0.6 -6.5 -0.7 99 0.0 NNE 20 28 11 15 1027.8 - 3.2
26/11:00pm -0.2 -5.8 -0.3 99 0.0 NE 19 32 10 17 1027.9 1032.9 3.2
26/10:30pm -0.1 -5.9 -0.2 99 0.0 NE 20 33 11 18 1027.8 - 3.2
26/10:00pm 0.1 -5.7 0.0 99 0.0 NNE 20 32 11 17 1027.9 1032.9 3.2
26/09:30pm 0.3 -5.8 0.2 99 0.0 NE 22 32 12 17 1027.9 - 3.0
26/09:00pm 0.5 -5.2 0.4 99 0.0 NE 20 32 11 17 1027.7 1032.7 2.8
26/08:30pm 0.4 -5.3 0.3 99 0.0 NE 20 30 11 16 1027.7 - 2.6
26/08:00pm 0.0 -6.2 -0.1 99 0.0 NE 22 33 12 18 1027.8 1032.8 2.6
26/07:30pm 0.3 -6.2 0.2 99 0.0 ENE 24 33 13 18 1027.5 - 2.4
26/07:00pm 0.4 -6.5 0.3 99 0.0 ENE 26 39 14 21 1027.5 1032.5 2.4
26/06:30pm 0.6 -5.9 0.5 99 0.0 ENE 24 35 13 19 1027.1 - 2.2
26/06:00pm 0.8 -5.6 0.7 99 0.0 ENE 24 37 13 20 1026.8 1031.8 2.0
26/05:30pm 0.8 -5.6 0.7 99 0.0 E 24 39 13 21 1026.4 - 1.4
26/05:00pm 1.1 -6.1 1.0 99 0.0 ENE 28 44 15 24 1026.1 1031.1 1.4
26/04:30pm 1.2 -5.6 1.1 99 0.0 E 26 44 14 24 1025.8 - 1.4
26/04:00pm 1.3 -5.1 1.2 99 0.0 E 24 41 13 22 1025.8 1030.7 1.2
26/03:30pm 1.4 -4.9 1.3 99 0.0 ENE 24 37 13 20 1025.5 - 1.0
26/03:00pm 1.4 -5.3 1.3 99 0.0 E 26 39 14 21 1025.6 1030.6 0.6
26/02:39pm 1.2 -5.9 1.1 99 0.0 E 28 46 15 25 1025.8 - 0.6
26/02:30pm 1.3 -4.7 1.2 99 0.0 E 22 35 12 19 1025.9 - 0.6
26/02:00pm 1.3 -5.1 1.2 99 0.0 E 24 37 13 20 1026.0 1030.9 0.4
26/01:38pm 1.1 -6.1 1.0 99 0.0 ENE 28 46 15 25 1025.8 - 0.4
26/01:30pm 1.0 -6.5 0.9 99 0.0 ENE 30 44 16 24 1026.0 - 0.4
26/01:13pm 0.9 -6.3 0.8 99 0.0 E 28 46 15 25 1026.0 - 0.4
26/01:00pm 0.9 -6.7 0.8 99 0.0 E 30 43 16 23 1026.2 1031.2 0.4
26/12:30pm 0.7 -6.5 0.6 99 0.0 ENE 28 44 15 24 1026.4 - 0.4
26/12:00pm 0.2 -6.7 0.1 99 0.0 ENE 26 44 14 24 1026.7 1031.6 0.4
26/11:32am 0.3 -7.4 0.2 99 0.0 ENE 30 50 16 27 1027.0 - 0.4
26/11:30am 0.4 -7.2 0.3 99 0.0 ENE 30 44 16 24 1027.0 - 0.4
26/11:00am 0.2 -8.4 0.1 99 0.0 ENE 35 59 19 32 1027.0 1032.0 0.2
26/10:30am 0.1 -8.0 0.0 99 0.0 ENE 32 50 17 27 1026.9 - 0.2
26/10:08am 0.2 -7.5 0.1 99 0.0 E 30 48 16 26 1027.0 - 0.2
26/10:00am 0.1 -8.0 0.0 99 0.0 E 32 46 17 25 1027.0 1032.0 0.2
26/09:30am 0.0 -9.0 -0.1 99 0.0 ENE 37 59 20 32 1027.2 - 0.0
26/09:11am 0.0 -8.3 -0.1 99 0.0 E 33 54 18 29 1026.9 - 0.0
26/09:00am 0.0 -8.3 -0.1 99 0.0 E 33 50 18 27 1026.9 1031.9 7.4
26/08:30am 0.0 -8.6 -0.1 99 0.0 E 35 56 19 30 1026.9 - 6.2
26/08:00am -0.1 -8.8 -0.2 99 0.0 E 35 57 19 31 1026.7 1031.6 5.0
26/07:30am 0.0 -8.6 -0.1 99 0.0 E 35 54 19 29 1026.3 - 4.2
26/07:07am 0.0 -8.1 -0.1 99 0.0 E 32 50 17 27 1026.1 - 3.8
26/07:00am 0.0 -7.7 -0.1 99 0.0 E 30 43 16 23 1026.0 1030.9 3.6
26/06:30am 0.0 -8.1 -0.1 99 0.0 E 32 59 17 32 1025.5 - 3.0
26/06:00am 0.0 -8.1 -0.1 99 0.0 E 32 57 17 31 1025.3 1030.2 2.4
26/05:30am 0.1 -8.0 0.0 99 0.0 E 32 52 17 28 1025.0 - 1.6
26/05:00am 0.0 -7.7 -0.1 99 0.0 E 30 48 16 26 1024.7 1029.6 0.8
26/04:30am 0.0 -7.3 -0.1 99 0.0 E 28 46 15 25 1024.7 - 0.4
26/04:02am 0.0 -7.3 -0.1 99 0.0 E 28 52 15 28 1024.8 - 0.2
26/04:00am 0.0 -6.9 -0.1 99 0.0 E 26 52 14 28 1024.7 1029.6 0.2
26/03:30am -0.1 -6.7 -0.2 99 0.0 E 24 41 13 22 1024.6 - 0.2
26/03:00am -0.2 -7.5 -0.3 99 0.0 E 28 48 15 26 1024.6 1029.5 0.2
26/02:30am -0.1 -7.8 -0.2 99 0.0 E 30 54 16 29 1025.1 - 0.2
26/02:07am -0.1 -7.4 -0.2 99 0.0 E 28 46 15 25 1025.1 - 0.2
26/02:00am 0.0 -6.9 -0.1 99 0.0 E 26 44 14 24 1025.2 1030.1 0.2
26/01:44am 0.1 -7.2 0.0 99 0.0 E 28 52 15 28 1025.1 - 0.2
26/01:30am 0.1 -6.8 0.0 99 0.0 E 26 48 14 26 1025.1 - 0.2
26/01:24am 0.1 -7.2 0.0 99 0.0 E 28 54 15 29 1025.2 - 0.2
26/01:00am 0.0 -6.9 -0.1 99 0.0 E 26 46 14 25 1025.4 1030.3 0.2
26/12:35am 0.0 -7.3 -0.1 99 0.0 E 28 46 15 25 1025.4 - 0.2
26/12:30am 0.0 -7.3 -0.1 99 0.0 E 28 44 15 24 1025.3 - 0.2
26/12:00am 0.0 -6.2 -0.1 99 0.0 ESE 22 35 12 19 1025.4 1030.3 0.2
 
Date/Time
EST
Temp
°C
App
Temp
°C
Dew
Point
Rel
Hum
%
Delta-T
°C
Wind Press
QNH
hPa
Press
MSL
hPa
Rain
since 9 am
mm
Dir
 
Spd
km/h
Gust
km/h
Spd
kts
Gust
kts
25/11:30pm -0.1 -5.9 -0.2 99 0.0 ESE 20 46 11 25 1025.3 - 0.2
25/11:00pm -0.2 -5.1 -0.3 99 0.0 E 15 32 8 17 1025.5 1030.5 0.2
25/10:30pm -0.4 -6.3 -0.5 99 0.0 E 20 33 11 18 1025.6 - 0.2
25/10:00pm -0.6 -6.3 -0.7 99 0.0 E 19 28 10 15 1025.9 1030.8 0.2
25/09:30pm -1.1 -6.5 -1.2 99 0.0 E 17 26 9 14 1026.1 - 0.2
25/09:00pm -0.9 -5.9 -1.0 99 0.0 E 15 22 8 12 1026.2 1031.2 0.2
25/08:30pm -0.9 -6.6 -1.0 99 0.0 ENE 19 32 10 17 1026.2 - 0.2
25/08:00pm -0.6 -5.5 -0.7 99 0.0 ESE 15 32 8 17 1026.1 1031.1 0.2
25/07:30pm -0.4 -5.7 -0.5 99 0.0 ESE 17 28 9 15 1026.0 - 0.2
25/07:00pm -0.3 -6.5 -0.4 99 0.0 E 22 33 12 18 1025.5 1030.5 0.2
25/06:30pm -0.3 -4.8 -0.4 99 0.0 ESE 13 30 7 16 1025.2 - 0.2
25/06:00pm -0.4 -4.9 -0.5 99 0.0 ESE 13 24 7 13 1025.0 1029.9 0.2
25/05:30pm -0.1 -4.4 -1.5 90 0.5 ENE 11 15 6 8 1024.4 - 0.0
25/05:00pm 0.2 -4.1 -2.0 85 0.8 E 11 19 6 10 1024.4 1029.3 0.0
25/04:30pm 0.2 -3.8 -1.9 86 0.8 ENE 9 15 5 8 1023.9 - 0.0
25/04:00pm 0.5 -2.9 -1.7 85 0.9 NE 6 7 3 4 1023.8 1028.7 0.0
25/03:30pm 0.6 -2.9 -1.6 85 0.9 E 7 17 4 9 1023.8 - 0.0
25/03:00pm 0.8 -3.5 -1.3 86 0.9 E 11 19 6 10 1023.8 1028.7 0.0
25/02:30pm 1.0 -3.2 -1.2 85 0.9 ENE 11 17 6 9 1023.9 - 0.0
25/02:00pm 0.2 -3.7 -1.4 89 0.6 E 9 19 5 10 1024.0 1028.9 0.0
25/01:30pm 0.0 -4.6 -1.0 93 0.4 ENE 13 19 7 10 1024.3 - 0.0

Other Formats:

Comma delimited format used in spreadsheet applications
http://www.bom.gov.au/fwo/IDN60801/IDN60801.95909.axf

JavaScript Object Notation format (JSON) in row-major order
http://www.bom.gov.au/fwo/IDN60801/IDN60801.95909.json